createdAt,value
2022-08-25T00:00:23.932Z,1.13
2022-08-25T00:02:56.834Z,1.27
2022-08-25T00:05:29.512Z,0.95
2022-08-25T00:08:00.831Z,0.90
2022-08-25T00:10:29.704Z,1.33
2022-08-25T00:12:58.866Z,1.23
2022-08-25T00:15:27.685Z,1.10
2022-08-25T00:17:57.277Z,1.00
2022-08-25T00:20:26.187Z,1.20
2022-08-25T00:22:56.149Z,0.98
2022-08-25T00:25:24.459Z,1.25
2022-08-25T00:27:52.739Z,1.15
2022-08-25T00:30:21.844Z,0.80
2022-08-25T00:32:55.469Z,1.08
2022-08-25T00:35:27.985Z,1.00
2022-08-25T00:37:56.090Z,1.13
2022-08-25T00:40:29.993Z,1.58
2022-08-25T00:42:58.253Z,1.20
2022-08-25T00:45:26.769Z,1.25
2022-08-25T00:47:55.021Z,1.10
2022-08-25T00:50:35.167Z,1.02
2022-08-25T00:53:09.055Z,1.23
2022-08-25T00:55:42.495Z,1.13
2022-08-25T00:58:21.535Z,0.70
2022-08-25T01:00:55.623Z,0.85
2022-08-25T01:03:33.102Z,1.20
2022-08-25T01:06:07.235Z,1.17
2022-08-25T01:08:35.558Z,1.02
2022-08-25T01:11:11.715Z,1.33
2022-08-25T01:13:43.018Z,1.15
2022-08-25T01:16:11.680Z,1.42
2022-08-25T01:18:48.721Z,1.60
2022-08-25T01:21:26.578Z,1.48
2022-08-25T01:23:59.676Z,1.10
2022-08-25T01:26:32.054Z,1.20
2022-08-25T01:29:19.892Z,1.60
2022-08-25T01:31:48.042Z,2.00
2022-08-25T01:34:21.358Z,1.27
2022-08-25T01:36:51.096Z,1.83
2022-08-25T01:39:29.817Z,1.90
2022-08-25T01:42:34.860Z,1.77
2022-08-25T01:45:02.808Z,1.90
2022-08-25T01:47:37.339Z,2.33
2022-08-25T01:52:57.780Z,1.75
2022-08-25T01:55:25.874Z,1.40
2022-08-25T01:58:07.065Z,1.55
2022-08-25T02:00:38.457Z,2.42
2022-08-25T02:03:32.458Z,2.00
2022-08-25T02:06:01.292Z,2.10
2022-08-25T02:09:01.033Z,2.05
2022-08-25T02:11:29.460Z,1.52
2022-08-25T02:13:59.364Z,1.85
2022-08-25T02:16:30.348Z,1.55
2022-08-25T02:18:59.417Z,1.48
2022-08-25T02:21:28.833Z,1.58
2022-08-25T02:23:57.265Z,2.00
2022-08-25T02:26:36.675Z,1.73
2022-08-25T02:29:06.050Z,1.90
2022-08-25T02:31:37.815Z,1.48
2022-08-25T02:34:07.446Z,1.83
2022-08-25T02:36:35.675Z,1.48
2022-08-25T02:39:05.569Z,1.52
2022-08-25T02:41:34.982Z,1.13
2022-08-25T02:44:04.923Z,1.50
2022-08-25T02:46:33.510Z,1.75
2022-08-25T02:49:02.018Z,1.40
2022-08-25T02:51:32.037Z,1.70
2022-08-25T02:54:02.043Z,1.47
2022-08-25T02:56:31.087Z,1.90
2022-08-25T02:59:01.864Z,1.65
2022-08-25T03:01:30.193Z,1.95
2022-08-25T03:03:58.732Z,1.80
2022-08-25T03:06:28.048Z,1.33
2022-08-25T03:08:58.865Z,1.88
2022-08-25T03:11:27.189Z,1.70
2022-08-25T03:13:56.484Z,2.03
2022-08-25T03:16:28.071Z,1.90
2022-08-25T03:18:56.644Z,1.77
2022-08-25T03:21:25.985Z,1.60
2022-08-25T03:23:54.104Z,1.55
2022-08-25T03:26:39.818Z,1.70
2022-08-25T03:29:08.033Z,1.40
2022-08-25T03:31:39.047Z,1.83
2022-08-25T03:34:07.190Z,1.80
2022-08-25T03:36:36.125Z,1.63
2022-08-25T03:39:05.100Z,1.90
2022-08-25T03:41:34.067Z,1.63
2022-08-25T03:44:03.998Z,2.00
2022-08-25T03:46:34.491Z,1.83
2022-08-25T03:49:06.965Z,2.10
2022-08-25T03:51:37.846Z,1.25
2022-08-25T03:54:06.246Z,1.50
2022-08-25T03:56:34.486Z,1.83
2022-08-25T03:59:02.460Z,1.45
2022-08-25T04:01:33.634Z,1.67
2022-08-25T04:04:03.198Z,1.92
2022-08-25T04:06:31.830Z,1.80
2022-08-25T04:08:59.860Z,2.45
2022-08-25T04:11:29.695Z,1.85
2022-08-25T04:14:01.225Z,2.03
2022-08-25T04:16:32.288Z,1.90
2022-08-25T04:19:02.191Z,1.67
2022-08-25T04:21:32.592Z,2.47
2022-08-25T04:24:00.573Z,1.92
2022-08-25T04:26:30.957Z,2.30
2022-08-25T04:29:00.943Z,2.33
2022-08-25T04:31:29.875Z,2.83
2022-08-25T04:33:58.425Z,2.15
2022-08-25T04:36:26.314Z,2.83
2022-08-25T04:38:55.655Z,1.88
2022-08-25T04:41:25.446Z,2.58
2022-08-25T04:43:54.264Z,2.08
2022-08-25T04:46:25.857Z,2.35
2022-08-25T04:48:56.298Z,2.50
2022-08-25T04:51:27.657Z,2.78
2022-08-25T04:53:59.246Z,1.70
2022-08-25T04:56:27.145Z,2.00
2022-08-25T04:58:56.607Z,2.03
2022-08-25T05:01:27.734Z,1.63
2022-08-25T05:03:57.808Z,2.78
2022-08-25T05:06:26.320Z,2.90
2022-08-25T05:08:54.435Z,2.58
2022-08-25T05:11:24.442Z,2.25
2022-08-25T05:13:55.279Z,2.20
2022-08-25T05:16:25.038Z,2.33
2022-08-25T05:18:54.309Z,3.05
2022-08-25T05:21:24.479Z,2.88
2022-08-25T05:23:57.568Z,2.50
2022-08-25T05:26:30.082Z,1.70
2022-08-25T05:28:59.002Z,2.70
2022-08-25T05:31:28.404Z,2.40
2022-08-25T05:33:56.870Z,2.03
2022-08-25T05:36:26.970Z,3.00
2022-08-25T05:38:55.222Z,3.22
2022-08-25T05:41:27.385Z,2.25
2022-08-25T05:43:57.441Z,2.83
2022-08-25T05:46:25.988Z,2.50
2022-08-25T05:48:55.210Z,1.98
2022-08-25T05:51:23.391Z,2.75
2022-08-25T05:53:52.908Z,2.83
2022-08-25T05:56:21.346Z,2.97
2022-08-25T05:58:50.382Z,3.45
2022-08-25T06:01:57.342Z,2.88
2022-08-25T06:04:25.497Z,3.25
2022-08-25T06:06:54.864Z,2.80
2022-08-25T06:09:22.911Z,3.45
2022-08-25T06:11:54.682Z,3.90
2022-08-25T06:14:23.921Z,3.83
2022-08-25T06:16:53.525Z,3.80
2022-08-25T06:19:23.096Z,3.67
2022-08-25T06:21:51.156Z,3.05
2022-08-25T06:24:19.588Z,3.65
2022-08-25T06:26:47.607Z,2.97
2022-08-25T06:29:15.919Z,2.80
2022-08-25T06:31:45.032Z,3.50
2022-08-25T06:34:14.648Z,4.75
2022-08-25T06:36:43.189Z,5.10
2022-08-25T06:39:16.800Z,4.45
2022-08-25T06:41:44.807Z,4.28
2022-08-25T06:44:13.229Z,2.70
2022-08-25T06:46:41.348Z,4.85
2022-08-25T06:49:09.295Z,3.33
2022-08-25T06:51:38.568Z,3.08
2022-08-25T06:54:10.123Z,3.22
2022-08-25T06:56:38.454Z,3.15
2022-08-25T06:59:08.194Z,3.30
2022-08-25T07:01:38.247Z,2.83
2022-08-25T07:04:11.768Z,3.83
2022-08-25T07:06:42.842Z,2.88
2022-08-25T07:09:12.389Z,2.50
2022-08-25T07:11:40.887Z,2.38
2022-08-25T07:14:11.981Z,3.65
2022-08-25T07:16:43.178Z,3.13
2022-08-25T07:19:20.607Z,2.65
2022-08-25T07:21:53.149Z,2.65
2022-08-25T07:24:23.365Z,3.17
2022-08-25T07:26:52.244Z,3.92
2022-08-25T07:29:32.008Z,2.95
2022-08-25T07:32:01.416Z,2.10
2022-08-25T07:34:51.983Z,2.50
2022-08-25T07:37:47.751Z,3.53
2022-08-25T07:40:15.226Z,3.22
2022-08-25T07:42:43.905Z,2.35
2022-08-25T07:45:13.529Z,2.05
2022-08-25T07:47:43.697Z,2.30
2022-08-25T07:50:13.476Z,3.30
2022-08-25T07:52:44.007Z,2.65
2022-08-25T07:55:20.902Z,2.05
2022-08-25T07:57:50.945Z,2.88
2022-08-25T08:00:27.413Z,3.20
2022-08-25T08:02:55.388Z,2.88
2022-08-25T08:05:24.604Z,3.92
2022-08-25T08:07:54.815Z,2.72
2022-08-25T08:13:17.734Z,3.10
2022-08-25T08:15:46.854Z,2.30
2022-08-25T08:18:15.940Z,2.38
2022-08-25T08:20:45.956Z,2.47
2022-08-25T08:23:16.358Z,2.53
2022-08-25T08:25:44.331Z,2.25
2022-08-25T08:28:12.594Z,3.45
2022-08-25T08:30:53.113Z,3.47
2022-08-25T08:33:24.294Z,4.00
2022-08-25T08:35:59.152Z,4.13
2022-08-25T08:38:29.330Z,4.35
2022-08-25T08:41:24.491Z,4.60
2022-08-25T08:44:02.348Z,2.88
2022-08-25T08:46:40.763Z,3.80
2022-08-25T08:49:23.050Z,2.83
2022-08-25T08:52:01.026Z,3.28
2022-08-25T08:55:00.453Z,2.30
2022-08-25T08:57:37.064Z,2.47
2022-08-25T09:00:09.422Z,3.42
2022-08-25T09:02:51.603Z,3.00
2022-08-25T09:05:23.578Z,2.90
2022-08-25T09:07:57.724Z,4.28
2022-08-25T09:10:36.295Z,3.08
2022-08-25T09:13:16.713Z,2.30
2022-08-25T09:16:22.386Z,3.50
2022-08-25T09:19:11.895Z,4.07
2022-08-25T09:21:58.395Z,3.13
2022-08-25T09:24:42.456Z,3.00
2022-08-25T09:27:22.408Z,3.45
2022-08-25T09:30:05.363Z,3.10
2022-08-25T09:32:41.696Z,3.00
2022-08-25T09:35:21.350Z,3.43
2022-08-25T09:38:00.646Z,2.50
2022-08-25T09:40:38.529Z,4.30
2022-08-25T09:43:23.144Z,4.68
2022-08-25T09:45:59.862Z,3.67
2022-08-25T09:48:30.722Z,2.65
2022-08-25T09:51:02.484Z,3.42
2022-08-25T09:53:33.857Z,3.55
2022-08-25T09:56:07.633Z,4.35
2022-08-25T09:58:39.717Z,3.58
2022-08-25T10:01:15.642Z,3.78
2022-08-25T10:04:02.646Z,4.45
2022-08-25T10:06:37.987Z,3.08
2022-08-25T10:09:08.136Z,3.53
2022-08-25T10:11:45.168Z,2.67
2022-08-25T10:14:27.812Z,2.47
2022-08-25T10:17:14.584Z,3.40
2022-08-25T10:19:52.528Z,2.85
2022-08-25T10:25:20.578Z,2.65
2022-08-25T10:28:02.150Z,2.72
2022-08-25T10:30:37.696Z,2.78
2022-08-25T10:33:34.831Z,3.00
2022-08-25T10:36:15.885Z,2.70
2022-08-25T10:38:55.219Z,3.08
2022-08-25T10:41:40.217Z,2.63
2022-08-25T10:44:37.653Z,2.30
2022-08-25T10:47:34.435Z,2.65
2022-08-25T10:50:11.259Z,2.10
2022-08-25T10:53:01.781Z,2.35
2022-08-25T10:55:43.340Z,3.97
2022-08-25T10:58:21.335Z,3.10
2022-08-25T11:01:00.546Z,3.65
2022-08-25T11:03:41.492Z,3.20
2022-08-25T11:06:15.290Z,2.15
2022-08-25T11:08:48.751Z,2.72
2022-08-25T11:11:27.748Z,2.63
2022-08-25T11:14:09.323Z,2.20
2022-08-25T11:16:48.470Z,2.38
2022-08-25T11:19:27.919Z,2.33
2022-08-25T11:22:06.295Z,2.42
2022-08-25T11:24:52.905Z,2.30
2022-08-25T11:27:27.708Z,2.85
2022-08-25T11:30:10.390Z,4.10
2022-08-25T11:32:40.702Z,4.85
2022-08-25T11:35:19.040Z,3.42
2022-08-25T11:38:02.065Z,3.20
2022-08-25T11:40:56.734Z,2.95
2022-08-25T11:43:40.556Z,2.40
2022-08-25T11:46:22.700Z,2.40
2022-08-25T11:49:09.894Z,3.95
2022-08-25T11:51:45.443Z,3.08
2022-08-25T11:54:35.640Z,2.90
2022-08-25T11:57:11.247Z,3.50
2022-08-25T12:00:10.856Z,3.08
2022-08-25T12:02:44.755Z,2.83
2022-08-25T12:05:53.429Z,3.03
2022-08-25T12:08:51.097Z,3.03
2022-08-25T12:11:45.506Z,3.05
2022-08-25T12:14:35.265Z,2.53
2022-08-25T12:17:19.929Z,2.47
2022-08-25T12:19:52.657Z,2.40
2022-08-25T12:22:51.509Z,3.20
2022-08-25T12:25:37.635Z,3.78
2022-08-25T12:28:19.472Z,2.33
2022-08-25T12:30:58.055Z,2.30
2022-08-25T12:33:39.295Z,2.50
2022-08-25T12:36:11.218Z,2.58
2022-08-25T12:38:50.858Z,2.33
2022-08-25T12:41:25.153Z,2.08
2022-08-25T12:43:55.378Z,2.47
2022-08-25T12:46:44.675Z,3.33
2022-08-25T12:49:31.794Z,2.40
2022-08-25T12:52:03.596Z,2.15
2022-08-25T12:54:49.235Z,2.10
2022-08-25T12:57:41.277Z,3.47
2022-08-25T13:00:21.917Z,2.63
2022-08-25T13:03:22.463Z,3.05
2022-08-25T13:06:16.049Z,2.03
2022-08-25T13:09:08.621Z,2.45
2022-08-25T13:11:43.228Z,2.25
2022-08-25T13:14:19.798Z,3.10
2022-08-25T13:16:55.646Z,3.17
2022-08-25T13:19:35.075Z,2.25
2022-08-25T13:22:16.823Z,2.00
2022-08-25T13:24:50.650Z,2.47
2022-08-25T13:27:32.492Z,2.20
2022-08-25T13:30:23.520Z,2.00
2022-08-25T13:32:54.576Z,1.80
2022-08-25T13:35:32.290Z,1.85
2022-08-25T13:38:15.153Z,2.55
2022-08-25T13:40:43.351Z,1.65
2022-08-25T13:43:15.263Z,2.03
2022-08-25T13:45:47.090Z,1.98
2022-08-25T13:48:34.228Z,2.08
2022-08-25T13:51:18.020Z,2.00
2022-08-25T13:53:51.562Z,2.00
2022-08-25T13:56:32.841Z,1.85
2022-08-25T13:59:09.920Z,1.90
2022-08-25T14:01:49.671Z,1.75
2022-08-25T14:04:24.543Z,2.30
2022-08-25T14:07:26.420Z,1.52
2022-08-25T14:09:56.919Z,1.40
2022-08-25T14:12:40.590Z,1.50
2022-08-25T14:15:32.118Z,1.52
2022-08-25T14:18:10.173Z,1.60
2022-08-25T14:20:51.501Z,2.05
2022-08-25T14:23:24.173Z,2.30
2022-08-25T14:25:53.407Z,1.98
2022-08-25T14:28:23.737Z,1.75
2022-08-25T14:31:05.145Z,3.30
2022-08-25T14:33:39.864Z,2.40
2022-08-25T14:36:08.626Z,2.35
2022-08-25T14:38:38.885Z,1.92
2022-08-25T14:43:45.395Z,1.67
2022-08-25T14:46:19.621Z,2.30
2022-08-25T14:48:54.586Z,2.03
2022-08-25T14:51:25.184Z,2.13
2022-08-25T14:53:55.557Z,1.92
2022-08-25T14:56:29.300Z,2.22
2022-08-25T14:59:04.879Z,1.85
2022-08-25T15:01:33.179Z,1.70
2022-08-25T15:04:06.893Z,1.40
2022-08-25T15:06:38.551Z,1.25
2022-08-25T15:09:13.022Z,1.75
2022-08-25T15:11:44.187Z,1.80
2022-08-25T15:14:15.575Z,1.73
2022-08-25T15:16:47.048Z,1.80
2022-08-25T15:19:21.318Z,1.70
2022-08-25T15:21:52.269Z,2.08
2022-08-25T15:24:22.486Z,1.33
2022-08-25T15:26:56.589Z,1.55
2022-08-25T15:29:30.064Z,1.80
2022-08-25T15:32:03.544Z,2.15
2022-08-25T15:34:32.955Z,2.30
2022-08-25T15:37:09.820Z,1.95
2022-08-25T15:39:39.904Z,1.67
2022-08-25T15:42:11.036Z,2.13
2022-08-25T15:44:40.121Z,1.90
2022-08-25T15:47:12.727Z,2.13
2022-08-25T15:49:44.313Z,1.48
2022-08-25T15:52:13.577Z,1.45
2022-08-25T15:54:49.122Z,1.88
2022-08-25T15:57:24.143Z,2.70
2022-08-25T15:59:56.528Z,2.50
2022-08-25T16:02:26.653Z,2.00
2022-08-25T16:04:56.150Z,2.55
2022-08-25T16:07:24.087Z,2.00
2022-08-25T16:09:54.903Z,1.88
2022-08-25T16:12:22.876Z,1.90
2022-08-25T16:14:51.056Z,1.80
2022-08-25T16:17:21.031Z,1.80
2022-08-25T16:19:49.156Z,1.58
2022-08-25T16:22:20.275Z,2.25
2022-08-25T16:24:48.508Z,2.20
2022-08-25T16:27:16.699Z,1.80
2022-08-25T16:29:48.023Z,1.88
2022-08-25T16:32:17.432Z,1.40
2022-08-25T16:34:45.715Z,2.00
2022-08-25T16:37:15.693Z,1.70
2022-08-25T16:39:53.118Z,1.25
2022-08-25T16:42:21.549Z,1.95
2022-08-25T16:44:50.134Z,1.80
2022-08-25T16:47:25.189Z,1.70
2022-08-25T16:49:55.475Z,2.08
2022-08-25T16:52:44.482Z,2.53
2022-08-25T16:55:17.315Z,2.05
2022-08-25T16:57:47.824Z,1.70
2022-08-25T17:00:19.264Z,1.70
2022-08-25T17:02:47.724Z,2.20
2022-08-25T17:05:16.874Z,2.17
2022-08-25T17:08:09.550Z,1.65
2022-08-25T17:10:43.898Z,2.13
2022-08-25T17:13:15.585Z,2.00
2022-08-25T17:15:46.879Z,2.03
2022-08-25T17:18:14.916Z,1.90
2022-08-25T17:20:45.217Z,2.05
2022-08-25T17:23:13.502Z,1.83
2022-08-25T17:25:43.807Z,1.48
2022-08-25T17:28:13.116Z,1.90
2022-08-25T17:30:43.228Z,2.33
2022-08-25T17:33:11.509Z,2.00
2022-08-25T17:35:43.619Z,1.67
2022-08-25T17:38:16.562Z,1.33
2022-08-25T17:40:48.909Z,2.00
2022-08-25T17:43:17.135Z,1.67
2022-08-25T17:45:56.077Z,2.20
2022-08-25T17:48:24.810Z,2.10
2022-08-25T17:51:08.892Z,1.92
2022-08-25T17:53:38.500Z,1.90
2022-08-25T17:56:10.328Z,2.00
2022-08-25T17:58:39.267Z,2.15
2022-08-25T18:01:08.390Z,2.05
2022-08-25T18:03:38.697Z,2.05
2022-08-25T18:06:07.471Z,1.80
2022-08-25T18:08:36.212Z,2.10
2022-08-25T18:11:08.568Z,1.52
2022-08-25T18:13:37.084Z,2.15
2022-08-25T18:16:06.487Z,2.00
2022-08-25T18:18:35.821Z,1.90
2022-08-25T18:21:04.640Z,2.50
2022-08-25T18:23:34.888Z,1.38
2022-08-25T18:26:03.023Z,1.60
2022-08-25T18:28:32.962Z,2.33
2022-08-25T18:31:05.077Z,1.50
2022-08-25T18:33:35.672Z,1.63
2022-08-25T18:36:03.971Z,1.70
2022-08-25T18:38:57.949Z,1.73
2022-08-25T18:41:28.178Z,1.55
2022-08-25T18:44:04.023Z,2.10
2022-08-25T18:46:35.998Z,1.92
2022-08-25T18:49:04.893Z,1.73
2022-08-25T18:51:36.840Z,1.80
2022-08-25T18:54:06.065Z,1.80
2022-08-25T18:56:35.786Z,1.63
2022-08-25T18:59:05.719Z,1.95
2022-08-25T19:01:35.048Z,1.80
2022-08-25T19:04:03.862Z,1.40
2022-08-25T19:06:32.456Z,1.95
2022-08-25T19:09:00.537Z,2.15
2022-08-25T19:11:28.666Z,2.45
2022-08-25T19:13:57.876Z,2.30
2022-08-25T19:16:36.112Z,1.92
2022-08-25T19:19:06.582Z,1.88
2022-08-25T19:21:36.981Z,1.98
2022-08-25T19:24:06.445Z,1.90
2022-08-25T19:26:36.105Z,2.35
2022-08-25T19:29:06.347Z,1.95
2022-08-25T19:31:39.922Z,1.80
2022-08-25T19:34:09.496Z,2.00
2022-08-25T19:36:38.331Z,1.73
2022-08-25T19:39:09.230Z,1.60
2022-08-25T19:41:37.401Z,2.13
2022-08-25T19:44:12.979Z,1.90
2022-08-25T19:46:44.710Z,2.33
2022-08-25T19:49:16.266Z,1.73
2022-08-25T19:51:50.470Z,2.13
2022-08-25T19:54:23.293Z,1.98
2022-08-25T19:56:55.072Z,2.00
2022-08-25T19:59:34.186Z,1.95
2022-08-25T20:02:13.402Z,1.33
2022-08-25T20:04:43.964Z,1.60
2022-08-25T20:07:18.970Z,1.25
2022-08-25T20:09:47.137Z,1.67
2022-08-25T20:14:50.871Z,1.83
2022-08-25T20:17:24.539Z,2.58
2022-08-25T20:20:00.784Z,1.98
2022-08-25T20:22:31.657Z,1.90
2022-08-25T20:25:02.456Z,2.15
2022-08-25T20:27:35.032Z,2.40
2022-08-25T20:30:05.493Z,2.30
2022-08-25T20:32:35.988Z,2.95
2022-08-25T20:35:06.572Z,2.28
2022-08-25T20:37:37.518Z,1.88
2022-08-25T20:40:10.083Z,1.83
2022-08-25T20:42:38.234Z,2.47
2022-08-25T20:45:10.486Z,1.92
2022-08-25T20:47:39.909Z,1.75
2022-08-25T20:50:10.555Z,1.77
2022-08-25T20:52:42.588Z,1.92
2022-08-25T20:55:12.340Z,1.63
2022-08-25T20:57:41.021Z,1.77
2022-08-25T21:00:18.729Z,2.10
2022-08-25T21:02:54.144Z,1.80
2022-08-25T21:05:22.414Z,1.55
2022-08-25T21:07:50.316Z,1.20
2022-08-25T21:10:19.124Z,1.63
2022-08-25T21:12:53.393Z,1.52
2022-08-25T21:15:22.033Z,1.80
2022-08-25T21:17:54.281Z,2.08
2022-08-25T21:20:24.152Z,1.52
2022-08-25T21:22:54.496Z,2.08
2022-08-25T21:25:22.945Z,1.17
2022-08-25T21:27:50.856Z,1.35
2022-08-25T21:30:18.855Z,1.85
2022-08-25T21:32:53.123Z,1.60
2022-08-25T21:35:24.855Z,1.33
2022-08-25T21:37:53.530Z,1.60
2022-08-25T21:40:22.986Z,1.63
2022-08-25T21:42:53.494Z,1.60
2022-08-25T21:45:22.461Z,1.40
2022-08-25T21:47:51.754Z,1.90
2022-08-25T21:50:22.589Z,1.60
2022-08-25T21:52:54.688Z,1.65
2022-08-25T21:55:22.947Z,1.83
2022-08-25T21:57:51.451Z,1.17
2022-08-25T22:00:22.570Z,1.40
2022-08-25T22:02:50.874Z,1.75
2022-08-25T22:05:24.920Z,1.45
2022-08-25T22:07:54.518Z,1.20
2022-08-25T22:10:22.752Z,1.40
2022-08-25T22:12:51.051Z,1.45
2022-08-25T22:15:19.927Z,1.27
2022-08-25T22:17:48.408Z,1.35
2022-08-25T22:20:18.118Z,1.80
2022-08-25T22:22:46.413Z,1.90
2022-08-25T22:25:15.946Z,1.60
2022-08-25T22:27:44.304Z,1.45
2022-08-25T22:30:13.716Z,1.15
2022-08-25T22:32:42.499Z,1.48
2022-08-25T22:35:13.491Z,1.65
2022-08-25T22:37:41.344Z,1.35
2022-08-25T22:40:10.575Z,1.40
2022-08-25T22:42:40.066Z,1.30
2022-08-25T22:45:10.160Z,1.90
2022-08-25T22:47:38.903Z,1.60
2022-08-25T22:50:10.269Z,1.60
2022-08-25T22:52:38.237Z,1.65
2022-08-25T22:55:11.917Z,1.40
2022-08-25T22:57:41.686Z,2.20
2022-08-25T23:00:12.967Z,1.92
2022-08-25T23:02:41.547Z,1.45
2022-08-25T23:05:11.524Z,1.85
2022-08-25T23:07:41.872Z,1.10
2022-08-25T23:10:12.648Z,1.38
2022-08-25T23:12:44.005Z,1.60
2022-08-25T23:15:12.893Z,1.92
2022-08-25T23:17:42.213Z,1.50
2022-08-25T23:20:25.267Z,1.73
2022-08-25T23:22:53.897Z,1.35
2022-08-25T23:25:33.097Z,1.48
2022-08-25T23:28:03.153Z,1.20
2022-08-25T23:30:31.470Z,1.20
2022-08-25T23:32:59.372Z,1.35
2022-08-25T23:35:27.477Z,1.40
2022-08-25T23:37:57.619Z,1.58
2022-08-25T23:40:27.626Z,1.50
2022-08-25T23:42:55.767Z,1.63
2022-08-25T23:45:25.216Z,1.20
2022-08-25T23:47:53.718Z,1.38
2022-08-25T23:50:21.869Z,1.58
2022-08-25T23:52:50.315Z,1.20
2022-08-25T23:55:18.371Z,1.50
2022-08-25T23:57:51.483Z,1.40
